createdAt,value
2019-04-06T00:01:57.580Z,1999.90
2019-04-06T00:07:01.286Z,1999.90
2019-04-06T00:12:05.053Z,1999.90
2019-04-06T00:17:08.829Z,1999.90
2019-04-06T00:22:12.546Z,1999.90
2019-04-06T00:27:16.272Z,1999.90
2019-04-06T00:32:34.038Z,1999.90
2019-04-06T00:37:37.737Z,1946.17
2019-04-06T00:42:41.433Z,1999.90
2019-04-06T00:47:45.157Z,1999.90
2019-04-06T00:52:48.891Z,1999.90
2019-04-06T00:57:52.612Z,1999.90
2019-04-06T01:02:56.378Z,1999.90
2019-04-06T01:08:00.317Z,1833.43
2019-04-06T01:13:04.184Z,1914.10
2019-04-06T01:18:07.871Z,1999.90
2019-04-06T01:23:11.837Z,1997.03
2019-04-06T01:28:15.675Z,1840.60
2019-04-06T01:33:19.441Z,1933.97
2019-04-06T01:38:23.421Z,1863.47
2019-04-06T01:43:27.374Z,1805.83
2019-04-06T01:48:31.134Z,1726.73
2019-04-06T01:53:34.833Z,1740.37
2019-04-06T01:58:38.538Z,1726.80
2019-04-06T02:03:42.266Z,1649.57
2019-04-06T02:08:45.982Z,1915.63
2019-04-06T02:13:49.704Z,1594.03
2019-04-06T02:18:53.663Z,1850.73
2019-04-06T02:23:57.375Z,1747.23
2019-04-06T02:29:01.191Z,1651.20
2019-04-06T02:34:14.643Z,1709.27
2019-04-06T02:39:36.360Z,1638.33
2019-04-06T02:44:40.186Z,1698.13
2019-04-06T02:49:43.888Z,1793.53
2019-04-06T02:54:47.590Z,1591.63
2019-04-06T02:59:51.410Z,1687.77
2019-04-06T03:04:55.184Z,1591.67
2019-04-06T03:09:58.983Z,1606.67
2019-04-06T03:15:02.832Z,1626.30
2019-04-06T03:20:06.901Z,1506.83
2019-04-06T03:25:11.092Z,1642.87
2019-04-06T03:30:15.628Z,1540.10
2019-04-06T03:35:19.703Z,1683.33
2019-04-06T03:40:23.457Z,1625.93
2019-04-06T03:45:27.196Z,1655.77
2019-04-06T03:50:31.005Z,1822.87
2019-04-06T03:55:34.743Z,1756.73
2019-04-06T04:00:38.714Z,1782.63
2019-04-06T04:05:42.390Z,1791.87
2019-04-06T04:10:47.855Z,1709.87
2019-04-06T04:15:51.719Z,1536.63
2019-04-06T04:20:56.170Z,1650.43
2019-04-06T04:26:00.049Z,1600.77
2019-04-06T04:31:03.926Z,1616.53
2019-04-06T04:36:07.792Z,1507.70
2019-04-06T04:41:12.046Z,1604.03
2019-04-06T04:46:15.865Z,1663.57
2019-04-06T04:51:19.587Z,1698.07
2019-04-06T04:56:23.393Z,1761.73
2019-04-06T05:01:27.359Z,1840.33
2019-04-06T05:06:31.667Z,1854.40
2019-04-06T05:11:35.775Z,1861.70
2019-04-06T05:16:39.657Z,1956.20
2019-04-06T05:21:43.742Z,1858.57
2019-04-06T05:26:47.797Z,1538.60
2019-04-06T05:31:51.611Z,1426.90
2019-04-06T05:36:55.318Z,1452.97
2019-04-06T05:41:59.038Z,1511.87
2019-04-06T05:47:03.118Z,1501.20
2019-04-06T05:52:07.410Z,1381.33
2019-04-06T05:57:11.254Z,1323.23
2019-04-06T06:02:14.975Z,1310.67
2019-04-06T06:07:18.694Z,1279.10
2019-04-06T06:12:22.474Z,1608.47
2019-04-06T06:17:26.215Z,1429.97
2019-04-06T06:22:29.939Z,1394.00
2019-04-06T06:27:33.969Z,1403.17
2019-04-06T06:32:37.925Z,1647.73
2019-04-06T06:37:41.825Z,1331.90
2019-04-06T06:42:45.643Z,1317.20
2019-04-06T06:47:49.766Z,1402.87
2019-04-06T06:52:53.498Z,1285.87
2019-04-06T06:57:57.223Z,1222.70
2019-04-06T07:03:01.083Z,1453.93
2019-04-06T07:08:05.271Z,1450.23
2019-04-06T07:13:09.003Z,1456.43
2019-04-06T07:18:13.154Z,1391.40
2019-04-06T07:23:16.866Z,1466.80
2019-04-06T07:28:20.863Z,1456.17
2019-04-06T07:33:24.675Z,1355.67
2019-04-06T07:38:28.408Z,1575.07
2019-04-06T07:43:32.221Z,1409.80
2019-04-06T07:48:36.003Z,1548.90
2019-04-06T07:53:39.720Z,1526.53
2019-04-06T07:58:49.551Z,1549.53
2019-04-06T08:03:48.955Z,1452.63
2019-04-06T08:08:52.878Z,1494.20
2019-04-06T08:13:56.597Z,1627.73
2019-04-06T08:19:00.321Z,1417.87
2019-04-06T08:24:04.183Z,1385.83
2019-04-06T08:29:08.054Z,1251.03
2019-04-06T08:34:13.756Z,1212.10
2019-04-06T08:39:17.349Z,1362.93
2019-04-06T08:44:21.353Z,1999.90
2019-04-06T08:49:25.243Z,1999.90
2019-04-06T08:54:30.534Z,1999.90
2019-04-06T08:59:34.413Z,1999.90
2019-04-06T09:04:38.673Z,1999.90
2019-04-06T09:09:42.613Z,1999.90
2019-04-06T09:14:46.380Z,1999.90
2019-04-06T09:19:50.232Z,1999.90
2019-04-06T09:24:54.169Z,1999.90
2019-04-06T09:29:58.167Z,1999.90
2019-04-06T09:35:02.172Z,1999.90
2019-04-06T09:40:06.421Z,1999.90
2019-04-06T09:45:28.463Z,1999.90
2019-04-06T09:51:00.665Z,1999.90
2019-04-06T09:56:23.980Z,1999.90
2019-04-06T10:01:41.834Z,1999.90
2019-04-06T10:06:54.188Z,1999.90
2019-04-06T10:12:18.855Z,1999.90
2019-04-06T10:17:40.743Z,1999.90
2019-04-06T10:22:53.590Z,1999.90
2019-04-06T10:28:08.197Z,1999.90
2019-04-06T10:33:19.234Z,1999.90
2019-04-06T10:38:35.496Z,1999.90
2019-04-06T10:44:05.053Z,1999.90
2019-04-06T10:49:45.297Z,1999.90
2019-04-06T10:55:10.362Z,1630.10
2019-04-06T11:00:28.880Z,1303.53
2019-04-06T11:06:00.835Z,1999.90
2019-04-06T11:11:27.109Z,1999.90
2019-04-06T11:16:50.577Z,1087.40
2019-04-06T11:22:09.754Z,1999.90
2019-04-06T11:27:33.445Z,1999.90
2019-04-06T11:32:59.553Z,868.73
2019-04-06T11:38:21.302Z,1999.90
2019-04-06T11:43:41.788Z,752.63
2019-04-06T11:49:10.673Z,998.47
2019-04-06T11:54:33.634Z,1999.90
2019-04-06T12:00:05.727Z,416.83
2019-04-06T12:05:17.157Z,201.87
2019-04-06T12:10:26.554Z,994.17
2019-04-06T12:15:42.014Z,238.37
2019-04-06T12:21:03.822Z,216.27
2019-04-06T12:26:29.651Z,237.53
2019-04-06T12:31:52.537Z,188.67
2019-04-06T12:37:03.347Z,128.63
2019-04-06T12:42:24.192Z,158.53
2019-04-06T12:47:47.302Z,161.40
2019-04-06T12:53:02.460Z,135.93
2019-04-06T12:58:24.998Z,134.43
2019-04-06T13:03:46.298Z,140.17
2019-04-06T13:09:07.702Z,130.57
2019-04-06T13:14:36.616Z,123.23
2019-04-06T13:19:45.234Z,136.27
2019-04-06T13:25:08.537Z,172.43
2019-04-06T13:30:22.109Z,134.73
2019-04-06T13:35:54.318Z,128.67
2019-04-06T13:41:27.997Z,260.20
2019-04-06T13:46:41.380Z,142.73
2019-04-06T13:51:54.603Z,128.63
2019-04-06T13:57:11.963Z,123.70
2019-04-06T14:02:41.260Z,136.17
2019-04-06T14:07:58.300Z,151.53
2019-04-06T14:13:27.237Z,118.80
2019-04-06T14:18:48.597Z,118.30
2019-04-06T14:24:00.663Z,117.90
2019-04-06T14:29:32.896Z,126.40
2019-04-06T14:35:00.237Z,127.13
2019-04-06T14:40:22.841Z,133.67
2019-04-06T14:45:48.669Z,128.60
2019-04-06T14:51:14.595Z,135.27
2019-04-06T14:56:30.287Z,142.43
2019-04-06T15:01:54.719Z,253.07
2019-04-06T15:07:15.316Z,234.87
2019-04-06T15:12:28.886Z,334.77
2019-04-06T15:17:41.201Z,424.00
2019-04-06T15:22:54.030Z,420.30
2019-04-06T15:28:16.524Z,469.07
2019-04-06T15:33:38.030Z,551.37
2019-04-06T15:38:50.746Z,823.07
2019-04-06T15:44:04.682Z,311.73
2019-04-06T15:49:26.519Z,319.50
2019-04-06T15:54:41.189Z,242.30
2019-04-06T15:59:50.984Z,141.10
2019-04-06T16:05:12.566Z,265.37
2019-04-06T16:10:24.291Z,529.13
2019-04-06T16:15:43.897Z,897.27
2019-04-06T16:21:06.963Z,1076.63
2019-04-06T16:26:21.459Z,1786.90
2019-04-06T16:31:34.278Z,1999.90
2019-04-06T16:36:57.690Z,1834.47
2019-04-06T16:42:08.852Z,968.10
2019-04-06T16:47:27.869Z,1184.87
2019-04-06T16:52:56.849Z,1307.07
2019-04-06T16:58:14.737Z,1999.90
2019-04-06T17:03:28.628Z,1419.10
2019-04-06T17:09:07.211Z,1927.53
2019-04-06T17:14:27.897Z,1999.90
2019-04-06T17:19:53.638Z,1999.90
2019-04-06T17:25:06.387Z,1999.90
2019-04-06T17:30:19.812Z,1999.90
2019-04-06T17:35:43.952Z,1999.90
2019-04-06T17:41:07.362Z,1999.90
2019-04-06T17:46:25.757Z,1999.90
2019-04-06T17:51:51.897Z,1999.90
2019-04-06T17:57:17.440Z,1999.90
2019-04-06T18:02:47.917Z,1999.90
2019-04-06T18:07:56.991Z,1999.90
2019-04-06T18:13:34.967Z,1999.90
2019-04-06T18:18:38.831Z,1999.90
2019-04-06T18:23:42.641Z,1999.90
2019-04-06T18:28:46.474Z,1999.90
2019-04-06T18:33:50.340Z,1999.90
2019-04-06T18:39:01.723Z,1999.90
2019-04-06T18:44:05.801Z,1999.90
2019-04-06T18:49:09.918Z,1634.20
2019-04-06T18:54:14.259Z,1501.57
2019-04-06T18:59:18.396Z,1574.73
2019-04-06T19:04:22.753Z,1725.83
2019-04-06T19:09:26.908Z,1781.30
2019-04-06T19:14:30.845Z,1610.80
2019-04-06T19:19:35.235Z,1461.87
2019-04-06T19:24:39.583Z,1434.37
2019-04-06T19:29:43.952Z,1477.93
2019-04-06T19:34:48.190Z,1512.93
2019-04-06T19:39:52.448Z,1500.83
2019-04-06T19:44:56.450Z,1581.90
2019-04-06T19:50:00.614Z,1635.70
2019-04-06T19:55:05.021Z,1755.03
2019-04-06T20:00:09.324Z,1678.60
2019-04-06T20:05:13.266Z,1592.27
2019-04-06T20:10:17.221Z,1575.87
2019-04-06T20:15:21.344Z,1502.40
2019-04-06T20:20:25.198Z,1304.60
2019-04-06T20:25:29.525Z,1419.60
2019-04-06T20:30:33.513Z,1535.97
2019-04-06T20:35:37.309Z,1525.87
2019-04-06T20:40:41.820Z,1581.63
2019-04-06T20:45:46.534Z,1765.90
2019-04-06T20:50:50.787Z,1722.77
2019-04-06T20:55:55.277Z,1603.90
2019-04-06T21:00:59.415Z,1569.67
2019-04-06T21:06:03.142Z,1456.87
2019-04-06T21:11:07.195Z,1509.63
2019-04-06T21:16:11.357Z,1549.30
2019-04-06T21:21:15.418Z,1487.33
2019-04-06T21:26:19.215Z,1423.87
2019-04-06T21:31:23.200Z,1412.70
2019-04-06T21:36:28.902Z,1309.13
2019-04-06T21:41:32.978Z,1345.17
2019-04-06T21:46:37.030Z,1301.57
2019-04-06T21:51:41.015Z,1262.90
2019-04-06T21:56:44.821Z,1341.23
2019-04-06T22:01:49.091Z,1162.97
2019-04-06T22:06:53.123Z,1078.07
2019-04-06T22:11:57.177Z,1527.53
2019-04-06T22:17:01.546Z,1503.80
2019-04-06T22:22:05.451Z,1601.07
2019-04-06T22:27:09.237Z,1712.53
2019-04-06T22:32:13.109Z,1631.03
2019-04-06T22:37:17.840Z,1650.03
2019-04-06T22:42:21.794Z,1617.80
2019-04-06T22:47:25.544Z,1560.90
2019-04-06T22:52:29.293Z,1660.00
2019-04-06T22:57:33.886Z,1702.77
2019-04-06T23:02:55.572Z,1527.93
2019-04-06T23:08:00.904Z,1605.87
2019-04-06T23:13:04.814Z,1460.23
2019-04-06T23:18:08.843Z,1312.47
2019-04-06T23:23:13.056Z,961.40
2019-04-06T23:28:16.838Z,1078.27
2019-04-06T23:33:21.204Z,1194.40
2019-04-06T23:38:25.222Z,1098.50
2019-04-06T23:43:29.570Z,1183.77
2019-04-06T23:48:33.675Z,1317.80
2019-04-06T23:53:37.870Z,1285.07
2019-04-06T23:58:42.077Z,1014.87
